This is the latest recevied weather packets stored in our database for station/object S54Z-11. If no packets are shown the sender has not sent any weather packets the latest 10 day(s).
| Time | Temp. | Humidity | Pressure | Rain* | Wind** | Luminosity | Snow |
|---|---|---|---|---|---|---|---|
| 1777270167 | 14.44° C | 35% | 1025.4 hPa | - | - | - | - |
| 1777269923 | 14.44° C | 39% | 1025.5 hPa | - | - | - | - |
| 1777269266 | 14.44° C | 39% | 1025.5 hPa | - | - | - | - |
| 1777268366 | 14.44° C | 46% | 1025.4 hPa | - | - | - | - |
| 1777267466 | 12.78° C | 49% | 1025.4 hPa | - | - | - | - |
| 1777266566 | 11.67° C | 49% | 1025.3 hPa | - | - | - | - |
| 1777265666 | 9.44° C | 54% | 1025.4 hPa | - | - | - | - |
| 1777264766 | 7.78° C | 57% | 1025.3 hPa | - | - | - | - |
| 1777263866 | 6.67° C | 59% | 1025.2 hPa | - | - | - | - |
| 1777262966 | 6.67° C | 59% | 1025.1 hPa | - | - | - | - |
| 1777262066 | 6.67° C | 59% | 1025.1 hPa | - | - | - | - |
| 1777261166 | 6.67° C | 59% | 1025.2 hPa | - | - | - | - |
| 1777260307 | 6.67° C | 57% | 1025.1 hPa | - | - | - | - |
| 1777260266 | 6.67° C | 57% | 1025.1 hPa | - | - | - | - |
| 1777259366 | 6.67° C | 57% | 1025.2 hPa | - | - | - | - |
| 1777258466 | 6.67° C | 58% | 1025.2 hPa | - | - | - | - |
| 1777257566 | 7.22° C | 55% | 1025.2 hPa | - | - | - | - |
| 1777256666 | 7.22° C | 55% | 1025.3 hPa | - | - | - | - |
| 1777255766 | 7.22° C | 53% | 1025.2 hPa | - | - | - | - |
| 1777254865 | 7.22° C | 54% | 1025.3 hPa | - | - | - | - |
| 1777253965 | 7.22° C | 55% | 1025.4 hPa | - | - | - | - |
| 1777253065 | 7.78° C | 52% | 1025.4 hPa | - | - | - | - |
| 1777252165 | 7.78° C | 54% | 1025.4 hPa | - | - | - | - |
| 1777251265 | 7.78° C | 54% | 1025.4 hPa | - | - | - | - |
| 1777249465 | 7.78° C | 52% | 1025.7 hPa | - | - | - | - |
* Rain since midnight (hover to see other rain measurements)
** Current wind speed in m/s (hover to see current wind gust speed)